sensor_id;sensor_type;location;lat;lon;timestamp;temperature;humidity
21335;DHT22;69435;52.670;13.544;2023-05-20T00:02:32;13.00;52.00
21335;DHT22;69435;52.670;13.544;2023-05-20T00:05:19;13.00;52.40
21335;DHT22;69435;52.670;13.544;2023-05-20T00:08:05;12.90;52.50
21335;DHT22;69435;52.670;13.544;2023-05-20T00:10:54;12.90;52.50
21335;DHT22;69435;52.670;13.544;2023-05-20T00:13:41;12.90;52.70
21335;DHT22;69435;52.670;13.544;2023-05-20T00:16:27;12.90;52.90
21335;DHT22;69435;52.670;13.544;2023-05-20T00:19:13;12.90;53.00
21335;DHT22;69435;52.670;13.544;2023-05-20T00:21:58;12.80;53.00
21335;DHT22;69435;52.670;13.544;2023-05-20T00:24:44;12.80;53.10
21335;DHT22;69435;52.670;13.544;2023-05-20T00:27:30;12.80;53.30
21335;DHT22;69435;52.670;13.544;2023-05-20T00:30:16;12.80;53.40
21335;DHT22;69435;52.670;13.544;2023-05-20T00:33:02;12.70;53.50
21335;DHT22;69435;52.670;13.544;2023-05-20T00:35:48;12.70;53.90
21335;DHT22;69435;52.670;13.544;2023-05-20T00:38:34;12.70;54.10
21335;DHT22;69435;52.670;13.544;2023-05-20T00:41:22;12.60;54.00
21335;DHT22;69435;52.670;13.544;2023-05-20T00:44:12;12.60;54.10
21335;DHT22;69435;52.670;13.544;2023-05-20T00:46:58;12.60;54.40
21335;DHT22;69435;52.670;13.544;2023-05-20T00:49:47;12.50;54.30
21335;DHT22;69435;52.670;13.544;2023-05-20T00:52:38;12.50;54.30
21335;DHT22;69435;52.670;13.544;2023-05-20T00:55:27;12.50;54.50
21335;DHT22;69435;52.670;13.544;2023-05-20T00:58:13;12.50;54.70
21335;DHT22;69435;52.670;13.544;2023-05-20T01:00:59;12.40;55.00
21335;DHT22;69435;52.670;13.544;2023-05-20T01:03:46;12.40;55.10
21335;DHT22;69435;52.670;13.544;2023-05-20T01:06:33;12.30;55.30
21335;DHT22;69435;52.670;13.544;2023-05-20T01:09:21;12.30;55.30
21335;DHT22;69435;52.670;13.544;2023-05-20T01:15:13;12.30;55.80
21335;DHT22;69435;52.670;13.544;2023-05-20T01:18:01;12.20;55.90
21335;DHT22;69435;52.670;13.544;2023-05-20T01:20:53;12.20;55.90
21335;DHT22;69435;52.670;13.544;2023-05-20T01:23:43;12.20;55.90
21335;DHT22;69435;52.670;13.544;2023-05-20T01:26:30;12.20;55.80
21335;DHT22;69435;52.670;13.544;2023-05-20T01:29:19;12.20;55.80
21335;DHT22;69435;52.670;13.544;2023-05-20T01:32:19;12.10;55.90
21335;DHT22;69435;52.670;13.544;2023-05-20T01:35:07;12.20;55.90
21335;DHT22;69435;52.670;13.544;2023-05-20T01:37:55;12.10;56.10
21335;DHT22;69435;52.670;13.544;2023-05-20T01:40:43;12.10;56.10
21335;DHT22;69435;52.670;13.544;2023-05-20T01:43:31;12.10;56.20
21335;DHT22;69435;52.670;13.544;2023-05-20T01:46:17;12.00;56.10
21335;DHT22;69435;52.670;13.544;2023-05-20T01:49:03;12.00;56.20
21335;DHT22;69435;52.670;13.544;2023-05-20T01:51:49;12.00;56.20
21335;DHT22;69435;52.670;13.544;2023-05-20T01:54:36;12.00;56.40
21335;DHT22;69435;52.670;13.544;2023-05-20T01:57:22;11.90;56.40
21335;DHT22;69435;52.670;13.544;2023-05-20T02:00:14;11.90;56.50
21335;DHT22;69435;52.670;13.544;2023-05-20T02:03:01;11.90;56.70
21335;DHT22;69435;52.670;13.544;2023-05-20T02:05:49;11.80;56.60
21335;DHT22;69435;52.670;13.544;2023-05-20T02:08:35;11.80;56.80
21335;DHT22;69435;52.670;13.544;2023-05-20T02:11:21;11.80;56.90
21335;DHT22;69435;52.670;13.544;2023-05-20T02:14:07;11.80;56.90
21335;DHT22;69435;52.670;13.544;2023-05-20T02:16:52;11.80;57.00
21335;DHT22;69435;52.670;13.544;2023-05-20T02:19:38;11.70;57.30
21335;DHT22;69435;52.670;13.544;2023-05-20T02:22:24;11.70;57.40
21335;DHT22;69435;52.670;13.544;2023-05-20T02:25:11;11.70;57.70
21335;DHT22;69435;52.670;13.544;2023-05-20T02:27:57;11.70;57.70
21335;DHT22;69435;52.670;13.544;2023-05-20T02:30:43;11.70;57.90
21335;DHT22;69435;52.670;13.544;2023-05-20T02:33:29;11.70;57.90
21335;DHT22;69435;52.670;13.544;2023-05-20T02:36:16;11.70;58.00
21335;DHT22;69435;52.670;13.544;2023-05-20T02:39:02;11.70;58.10
21335;DHT22;69435;52.670;13.544;2023-05-20T02:41:48;11.70;58.40
21335;DHT22;69435;52.670;13.544;2023-05-20T02:44:35;11.70;58.40
21335;DHT22;69435;52.670;13.544;2023-05-20T02:47:23;11.70;58.40
21335;DHT22;69435;52.670;13.544;2023-05-20T02:50:10;11.70;58.50
21335;DHT22;69435;52.670;13.544;2023-05-20T02:52:56;11.60;58.50
21335;DHT22;69435;52.670;13.544;2023-05-20T02:55:42;11.60;58.50
21335;DHT22;69435;52.670;13.544;2023-05-20T02:58:32;11.70;58.60
21335;DHT22;69435;52.670;13.544;2023-05-20T03:01:22;11.60;58.80
21335;DHT22;69435;52.670;13.544;2023-05-20T03:04:09;11.60;58.90
21335;DHT22;69435;52.670;13.544;2023-05-20T03:06:56;11.60;59.00
21335;DHT22;69435;52.670;13.544;2023-05-20T03:09:42;11.60;59.00
21335;DHT22;69435;52.670;13.544;2023-05-20T03:12:29;11.60;59.00
21335;DHT22;69435;52.670;13.544;2023-05-20T03:15:15;11.60;59.10
21335;DHT22;69435;52.670;13.544;2023-05-20T03:18:01;11.60;59.30
21335;DHT22;69435;52.670;13.544;2023-05-20T03:20:49;11.60;59.20
21335;DHT22;69435;52.670;13.544;2023-05-20T03:23:36;11.60;59.50
21335;DHT22;69435;52.670;13.544;2023-05-20T03:26:22;11.50;59.40
21335;DHT22;69435;52.670;13.544;2023-05-20T03:29:09;11.50;59.50
21335;DHT22;69435;52.670;13.544;2023-05-20T03:31:55;11.50;59.80
21335;DHT22;69435;52.670;13.544;2023-05-20T03:34:41;11.50;59.90
21335;DHT22;69435;52.670;13.544;2023-05-20T03:37:27;11.50;60.00
21335;DHT22;69435;52.670;13.544;2023-05-20T03:40:13;11.50;59.90
21335;DHT22;69435;52.670;13.544;2023-05-20T03:42:59;11.60;59.80
21335;DHT22;69435;52.670;13.544;2023-05-20T03:45:45;11.60;59.90
21335;DHT22;69435;52.670;13.544;2023-05-20T03:48:37;11.60;60.10
21335;DHT22;69435;52.670;13.544;2023-05-20T03:51:23;11.60;60.20
21335;DHT22;69435;52.670;13.544;2023-05-20T03:54:08;11.60;60.20
21335;DHT22;69435;52.670;13.544;2023-05-20T03:57:00;11.60;60.20
21335;DHT22;69435;52.670;13.544;2023-05-20T03:59:47;11.70;60.40
21335;DHT22;69435;52.670;13.544;2023-05-20T04:02:33;11.70;60.60
21335;DHT22;69435;52.670;13.544;2023-05-20T04:05:19;11.80;60.60
21335;DHT22;69435;52.670;13.544;2023-05-20T04:08:05;11.80;60.50
21335;DHT22;69435;52.670;13.544;2023-05-20T04:10:55;11.90;60.60
21335;DHT22;69435;52.670;13.544;2023-05-20T04:13:41;12.00;60.70
21335;DHT22;69435;52.670;13.544;2023-05-20T04:16:35;12.00;60.70
21335;DHT22;69435;52.670;13.544;2023-05-20T04:19:21;12.10;60.90
21335;DHT22;69435;52.670;13.544;2023-05-20T04:22:08;12.10;60.80
21335;DHT22;69435;52.670;13.544;2023-05-20T04:24:54;12.20;60.90
21335;DHT22;69435;52.670;13.544;2023-05-20T04:27:42;12.20;60.60
21335;DHT22;69435;52.670;13.544;2023-05-20T04:30:29;12.30;60.40
21335;DHT22;69435;52.670;13.544;2023-05-20T04:33:17;12.40;60.10
21335;DHT22;69435;52.670;13.544;2023-05-20T04:36:06;12.50;60.00
21335;DHT22;69435;52.670;13.544;2023-05-20T04:38:54;12.60;59.70
21335;DHT22;69435;52.670;13.544;2023-05-20T04:41:41;12.60;59.70
21335;DHT22;69435;52.670;13.544;2023-05-20T04:44:27;12.70;59.60
21335;DHT22;69435;52.670;13.544;2023-05-20T04:47:14;12.70;59.60
21335;DHT22;69435;52.670;13.544;2023-05-20T04:50:00;12.80;59.60
21335;DHT22;69435;52.670;13.544;2023-05-20T04:52:46;12.80;59.60
21335;DHT22;69435;52.670;13.544;2023-05-20T04:55:32;12.90;59.50
21335;DHT22;69435;52.670;13.544;2023-05-20T04:58:18;12.90;59.30
21335;DHT22;69435;52.670;13.544;2023-05-20T05:01:05;13.00;59.00
21335;DHT22;69435;52.670;13.544;2023-05-20T05:03:51;13.00;58.90
21335;DHT22;69435;52.670;13.544;2023-05-20T05:06:37;13.10;58.90
21335;DHT22;69435;52.670;13.544;2023-05-20T05:09:24;13.10;58.90
21335;DHT22;69435;52.670;13.544;2023-05-20T05:12:10;13.10;58.90
21335;DHT22;69435;52.670;13.544;2023-05-20T05:14:56;13.10;59.10
21335;DHT22;69435;52.670;13.544;2023-05-20T05:17:43;13.10;59.20
21335;DHT22;69435;52.670;13.544;2023-05-20T05:20:29;13.10;59.20
21335;DHT22;69435;52.670;13.544;2023-05-20T05:23:15;13.20;59.10
21335;DHT22;69435;52.670;13.544;2023-05-20T05:26:01;13.30;59.00
21335;DHT22;69435;52.670;13.544;2023-05-20T05:28:47;13.30;58.80
21335;DHT22;69435;52.670;13.544;2023-05-20T05:31:33;13.40;58.80
21335;DHT22;69435;52.670;13.544;2023-05-20T05:34:21;13.40;58.30
21335;DHT22;69435;52.670;13.544;2023-05-20T05:37:07;13.50;58.40
21335;DHT22;69435;52.670;13.544;2023-05-20T05:39:53;13.50;57.90
21335;DHT22;69435;52.670;13.544;2023-05-20T05:42:39;13.60;58.20
21335;DHT22;69435;52.670;13.544;2023-05-20T05:45:25;13.60;58.20
21335;DHT22;69435;52.670;13.544;2023-05-20T05:48:15;13.60;58.30
21335;DHT22;69435;52.670;13.544;2023-05-20T05:51:01;13.60;58.30
21335;DHT22;69435;52.670;13.544;2023-05-20T05:53:48;13.70;58.20
21335;DHT22;69435;52.670;13.544;2023-05-20T05:56:34;13.70;58.30
21335;DHT22;69435;52.670;13.544;2023-05-20T05:59:20;13.70;58.30
21335;DHT22;69435;52.670;13.544;2023-05-20T06:02:05;13.70;59.20
21335;DHT22;69435;52.670;13.544;2023-05-20T06:04:52;13.80;58.30
21335;DHT22;69435;52.670;13.544;2023-05-20T06:07:41;13.90;58.30
21335;DHT22;69435;52.670;13.544;2023-05-20T06:10:27;14.00;58.00
21335;DHT22;69435;52.670;13.544;2023-05-20T06:13:15;14.10;58.10
21335;DHT22;69435;52.670;13.544;2023-05-20T06:16:02;14.20;57.80
21335;DHT22;69435;52.670;13.544;2023-05-20T06:18:48;14.40;57.80
21335;DHT22;69435;52.670;13.544;2023-05-20T06:21:35;14.50;57.70
21335;DHT22;69435;52.670;13.544;2023-05-20T06:24:21;14.60;57.00
21335;DHT22;69435;52.670;13.544;2023-05-20T06:27:07;14.70;56.90
21335;DHT22;69435;52.670;13.544;2023-05-20T06:29:53;14.70;57.10
21335;DHT22;69435;52.670;13.544;2023-05-20T06:32:39;14.80;56.80
21335;DHT22;69435;52.670;13.544;2023-05-20T06:35:25;14.80;56.60
21335;DHT22;69435;52.670;13.544;2023-05-20T06:38:11;14.80;56.50
21335;DHT22;69435;52.670;13.544;2023-05-20T06:40:57;14.90;56.40
21335;DHT22;69435;52.670;13.544;2023-05-20T06:43:42;14.90;56.20
21335;DHT22;69435;52.670;13.544;2023-05-20T06:46:28;15.00;56.20
21335;DHT22;69435;52.670;13.544;2023-05-20T06:49:14;15.10;55.90
21335;DHT22;69435;52.670;13.544;2023-05-20T06:52:00;15.00;55.80
21335;DHT22;69435;52.670;13.544;2023-05-20T06:54:46;15.10;56.00
21335;DHT22;69435;52.670;13.544;2023-05-20T06:57:33;15.10;55.90
21335;DHT22;69435;52.670;13.544;2023-05-20T07:00:19;15.10;56.10
21335;DHT22;69435;52.670;13.544;2023-05-20T07:03:05;15.00;55.90
21335;DHT22;69435;52.670;13.544;2023-05-20T07:05:52;15.10;56.40
21335;DHT22;69435;52.670;13.544;2023-05-20T07:08:38;15.20;56.20
21335;DHT22;69435;52.670;13.544;2023-05-20T07:11:24;15.30;56.50
21335;DHT22;69435;52.670;13.544;2023-05-20T07:14:11;15.40;55.90
21335;DHT22;69435;52.670;13.544;2023-05-20T07:16:57;15.40;55.70
21335;DHT22;69435;52.670;13.544;2023-05-20T07:19:43;15.60;55.80
21335;DHT22;69435;52.670;13.544;2023-05-20T07:22:29;15.70;55.30
21335;DHT22;69435;52.670;13.544;2023-05-20T07:25:18;15.70;55.20
21335;DHT22;69435;52.670;13.544;2023-05-20T07:28:04;15.90;54.60
21335;DHT22;69435;52.670;13.544;2023-05-20T07:30:50;15.90;54.70
21335;DHT22;69435;52.670;13.544;2023-05-20T07:33:36;16.10;54.50
21335;DHT22;69435;52.670;13.544;2023-05-20T07:36:28;16.10;54.60
21335;DHT22;69435;52.670;13.544;2023-05-20T07:39:15;16.20;54.50
21335;DHT22;69435;52.670;13.544;2023-05-20T07:42:01;16.20;54.10
21335;DHT22;69435;52.670;13.544;2023-05-20T07:44:49;16.20;54.50
21335;DHT22;69435;52.670;13.544;2023-05-20T07:47:35;16.30;54.20
21335;DHT22;69435;52.670;13.544;2023-05-20T07:50:22;16.40;54.20
21335;DHT22;69435;52.670;13.544;2023-05-20T07:53:11;16.50;53.70
21335;DHT22;69435;52.670;13.544;2023-05-20T07:55:57;16.60;53.60
21335;DHT22;69435;52.670;13.544;2023-05-20T07:58:51;16.60;53.70
21335;DHT22;69435;52.670;13.544;2023-05-20T08:01:41;16.70;54.00
21335;DHT22;69435;52.670;13.544;2023-05-20T08:04:27;16.80;53.30
21335;DHT22;69435;52.670;13.544;2023-05-20T08:07:15;17.00;52.80
21335;DHT22;69435;52.670;13.544;2023-05-20T08:10:01;17.10;52.60
21335;DHT22;69435;52.670;13.544;2023-05-20T08:12:47;17.20;52.10
21335;DHT22;69435;52.670;13.544;2023-05-20T08:15:35;17.20;51.90
21335;DHT22;69435;52.670;13.544;2023-05-20T08:18:22;17.30;51.70
21335;DHT22;69435;52.670;13.544;2023-05-20T08:21:08;17.40;51.30
21335;DHT22;69435;52.670;13.544;2023-05-20T08:23:54;17.50;51.50
21335;DHT22;69435;52.670;13.544;2023-05-20T08:26:40;17.60;50.30
21335;DHT22;69435;52.670;13.544;2023-05-20T08:29:26;17.70;50.50
21335;DHT22;69435;52.670;13.544;2023-05-20T08:32:12;17.70;50.40
21335;DHT22;69435;52.670;13.544;2023-05-20T08:34:58;17.90;50.40
21335;DHT22;69435;52.670;13.544;2023-05-20T08:37:46;18.00;49.70
21335;DHT22;69435;52.670;13.544;2023-05-20T08:40:36;18.20;49.10
21335;DHT22;69435;52.670;13.544;2023-05-20T08:43:24;18.40;49.30
21335;DHT22;69435;52.670;13.544;2023-05-20T08:46:11;18.40;48.70
21335;DHT22;69435;52.670;13.544;2023-05-20T08:48:57;18.60;49.50
21335;DHT22;69435;52.670;13.544;2023-05-20T08:51:44;18.90;49.00
21335;DHT22;69435;52.670;13.544;2023-05-20T08:54:42;19.20;47.90
21335;DHT22;69435;52.670;13.544;2023-05-20T08:57:33;19.40;46.50
21335;DHT22;69435;52.670;13.544;2023-05-20T09:00:22;19.50;46.50
21335;DHT22;69435;52.670;13.544;2023-05-20T09:03:11;19.60;46.70
21335;DHT22;69435;52.670;13.544;2023-05-20T09:06:07;19.80;46.30
21335;DHT22;69435;52.670;13.544;2023-05-20T09:08:54;19.90;45.30
21335;DHT22;69435;52.670;13.544;2023-05-20T09:11:40;20.00;44.80
21335;DHT22;69435;52.670;13.544;2023-05-20T09:14:28;19.90;45.20
21335;DHT22;69435;52.670;13.544;2023-05-20T09:17:22;20.00;45.20
21335;DHT22;69435;52.670;13.544;2023-05-20T09:20:09;20.00;45.30
21335;DHT22;69435;52.670;13.544;2023-05-20T09:23:00;19.90;44.10
21335;DHT22;69435;52.670;13.544;2023-05-20T09:25:51;19.70;45.10
21335;DHT22;69435;52.670;13.544;2023-05-20T09:28:37;19.60;45.30
21335;DHT22;69435;52.670;13.544;2023-05-20T09:31:26;19.50;45.80
21335;DHT22;69435;52.670;13.544;2023-05-20T09:34:16;19.40;46.00
21335;DHT22;69435;52.670;13.544;2023-05-20T09:37:02;19.40;46.60
21335;DHT22;69435;52.670;13.544;2023-05-20T09:40:00;19.40;47.10
21335;DHT22;69435;52.670;13.544;2023-05-20T09:43:05;19.50;46.50
21335;DHT22;69435;52.670;13.544;2023-05-20T09:46:07;19.60;46.80
21335;DHT22;69435;52.670;13.544;2023-05-20T09:48:54;19.50;46.80
21335;DHT22;69435;52.670;13.544;2023-05-20T09:51:41;19.50;46.60
21335;DHT22;69435;52.670;13.544;2023-05-20T09:54:29;19.50;45.90
21335;DHT22;69435;52.670;13.544;2023-05-20T09:57:16;19.50;45.50
21335;DHT22;69435;52.670;13.544;2023-05-20T10:00:04;19.40;45.80
21335;DHT22;69435;52.670;13.544;2023-05-20T10:02:53;19.20;46.30
21335;DHT22;69435;52.670;13.544;2023-05-20T10:05:47;19.10;46.90
21335;DHT22;69435;52.670;13.544;2023-05-20T10:09:16;19.00;47.00
21335;DHT22;69435;52.670;13.544;2023-05-20T10:12:28;18.90;47.10
21335;DHT22;69435;52.670;13.544;2023-05-20T10:15:58;18.80;47.70
21335;DHT22;69435;52.670;13.544;2023-05-20T10:19:22;18.80;48.60
21335;DHT22;69435;52.670;13.544;2023-05-20T10:22:26;18.70;48.30
21335;DHT22;69435;52.670;13.544;2023-05-20T10:25:26;18.70;49.30
21335;DHT22;69435;52.670;13.544;2023-05-20T10:28:13;18.70;48.40
21335;DHT22;69435;52.670;13.544;2023-05-20T10:30:59;18.70;49.00
21335;DHT22;69435;52.670;13.544;2023-05-20T10:33:46;18.70;48.60
21335;DHT22;69435;52.670;13.544;2023-05-20T10:36:32;18.70;49.00
21335;DHT22;69435;52.670;13.544;2023-05-20T10:39:28;18.80;49.00
21335;DHT22;69435;52.670;13.544;2023-05-20T10:42:14;19.10;48.30
21335;DHT22;69435;52.670;13.544;2023-05-20T10:45:01;19.20;48.30
21335;DHT22;69435;52.670;13.544;2023-05-20T10:47:55;19.30;47.40
21335;DHT22;69435;52.670;13.544;2023-05-20T10:50:43;19.30;48.10
21335;DHT22;69435;52.670;13.544;2023-05-20T10:53:38;19.40;47.80
21335;DHT22;69435;52.670;13.544;2023-05-20T10:56:32;19.40;48.00
21335;DHT22;69435;52.670;13.544;2023-05-20T10:59:19;19.40;47.80
21335;DHT22;69435;52.670;13.544;2023-05-20T11:02:07;19.50;49.50
21335;DHT22;69435;52.670;13.544;2023-05-20T11:04:58;19.90;49.30
21335;DHT22;69435;52.670;13.544;2023-05-20T11:07:50;20.30;46.00
21335;DHT22;69435;52.670;13.544;2023-05-20T11:10:46;20.60;45.00
21335;DHT22;69435;52.670;13.544;2023-05-20T11:13:32;20.80;44.50
21335;DHT22;69435;52.670;13.544;2023-05-20T11:16:19;20.90;44.10
21335;DHT22;69435;52.670;13.544;2023-05-20T11:19:07;21.00;43.80
21335;DHT22;69435;52.670;13.544;2023-05-20T11:21:54;21.00;43.90
21335;DHT22;69435;52.670;13.544;2023-05-20T11:24:40;21.00;44.50
21335;DHT22;69435;52.670;13.544;2023-05-20T11:27:27;21.10;43.50
21335;DHT22;69435;52.670;13.544;2023-05-20T11:30:15;21.20;43.70
21335;DHT22;69435;52.670;13.544;2023-05-20T11:33:03;21.10;44.30
21335;DHT22;69435;52.670;13.544;2023-05-20T11:35:53;21.20;43.70
21335;DHT22;69435;52.670;13.544;2023-05-20T11:38:40;21.30;43.90
21335;DHT22;69435;52.670;13.544;2023-05-20T11:41:27;21.40;43.50
21335;DHT22;69435;52.670;13.544;2023-05-20T11:44:18;21.60;43.40
21335;DHT22;69435;52.670;13.544;2023-05-20T11:47:04;21.70;42.50
21335;DHT22;69435;52.670;13.544;2023-05-20T11:49:51;21.70;42.10
21335;DHT22;69435;52.670;13.544;2023-05-20T11:52:39;21.70;42.60
21335;DHT22;69435;52.670;13.544;2023-05-20T11:55:26;21.70;43.60
21335;DHT22;69435;52.670;13.544;2023-05-20T11:58:18;21.90;42.30
21335;DHT22;69435;52.670;13.544;2023-05-20T12:01:05;22.10;42.10
21335;DHT22;69435;52.670;13.544;2023-05-20T12:03:53;22.10;41.30
21335;DHT22;69435;52.670;13.544;2023-05-20T12:06:43;22.00;42.50
21335;DHT22;69435;52.670;13.544;2023-05-20T12:09:30;21.80;41.70
21335;DHT22;69435;52.670;13.544;2023-05-20T12:12:16;21.60;42.00
21335;DHT22;69435;52.670;13.544;2023-05-20T12:15:28;21.60;41.60
21335;DHT22;69435;52.670;13.544;2023-05-20T12:18:14;21.60;42.10
21335;DHT22;69435;52.670;13.544;2023-05-20T12:21:00;21.60;42.80
21335;DHT22;69435;52.670;13.544;2023-05-20T12:23:48;21.70;42.80
21335;DHT22;69435;52.670;13.544;2023-05-20T12:26:34;21.70;42.40
21335;DHT22;69435;52.670;13.544;2023-05-20T12:29:20;21.80;42.50
21335;DHT22;69435;52.670;13.544;2023-05-20T12:32:06;21.80;41.80
21335;DHT22;69435;52.670;13.544;2023-05-20T12:34:52;21.90;42.20
21335;DHT22;69435;52.670;13.544;2023-05-20T12:37:41;22.00;41.30
21335;DHT22;69435;52.670;13.544;2023-05-20T12:40:32;22.20;43.00
21335;DHT22;69435;52.670;13.544;2023-05-20T12:43:20;22.40;42.10
21335;DHT22;69435;52.670;13.544;2023-05-20T12:46:08;22.70;41.40
21335;DHT22;69435;52.670;13.544;2023-05-20T12:48:54;23.00;40.80
21335;DHT22;69435;52.670;13.544;2023-05-20T12:51:40;23.10;40.70
21335;DHT22;69435;52.670;13.544;2023-05-20T12:54:28;23.30;40.30
21335;DHT22;69435;52.670;13.544;2023-05-20T12:57:18;23.50;39.80
21335;DHT22;69435;52.670;13.544;2023-05-20T13:00:04;23.50;38.50
21335;DHT22;69435;52.670;13.544;2023-05-20T13:02:54;23.60;38.90
21335;DHT22;69435;52.670;13.544;2023-05-20T13:05:44;23.60;39.10
21335;DHT22;69435;52.670;13.544;2023-05-20T13:08:31;23.50;39.30
21335;DHT22;69435;52.670;13.544;2023-05-20T13:11:21;23.40;40.00
21335;DHT22;69435;52.670;13.544;2023-05-20T13:14:09;23.50;39.10
21335;DHT22;69435;52.670;13.544;2023-05-20T13:16:55;23.40;39.50
21335;DHT22;69435;52.670;13.544;2023-05-20T13:19:41;23.40;39.70
21335;DHT22;69435;52.670;13.544;2023-05-20T13:22:27;23.50;39.20
21335;DHT22;69435;52.670;13.544;2023-05-20T13:25:13;23.50;39.50
21335;DHT22;69435;52.670;13.544;2023-05-20T13:28:05;23.50;39.10
21335;DHT22;69435;52.670;13.544;2023-05-20T13:30:52;23.50;39.60
21335;DHT22;69435;52.670;13.544;2023-05-20T13:33:38;23.50;39.60
21335;DHT22;69435;52.670;13.544;2023-05-20T13:36:25;23.30;39.40
21335;DHT22;69435;52.670;13.544;2023-05-20T13:39:12;23.40;39.30
21335;DHT22;69435;52.670;13.544;2023-05-20T13:42:00;23.40;40.20
21335;DHT22;69435;52.670;13.544;2023-05-20T13:44:46;23.50;40.40
21335;DHT22;69435;52.670;13.544;2023-05-20T13:47:32;23.60;39.90
21335;DHT22;69435;52.670;13.544;2023-05-20T13:50:18;23.70;39.40
21335;DHT22;69435;52.670;13.544;2023-05-20T13:53:05;23.80;39.00
21335;DHT22;69435;52.670;13.544;2023-05-20T13:55:51;23.70;38.60
21335;DHT22;69435;52.670;13.544;2023-05-20T13:58:37;23.70;39.90
21335;DHT22;69435;52.670;13.544;2023-05-20T14:01:24;23.70;39.60
21335;DHT22;69435;52.670;13.544;2023-05-20T14:04:11;23.70;39.60
21335;DHT22;69435;52.670;13.544;2023-05-20T14:06:57;23.80;39.40
21335;DHT22;69435;52.670;13.544;2023-05-20T14:09:44;23.70;38.80
21335;DHT22;69435;52.670;13.544;2023-05-20T14:12:30;23.60;39.00
21335;DHT22;69435;52.670;13.544;2023-05-20T14:15:16;23.60;39.30
21335;DHT22;69435;52.670;13.544;2023-05-20T14:18:02;23.50;39.40
21335;DHT22;69435;52.670;13.544;2023-05-20T14:20:49;23.40;38.90
21335;DHT22;69435;52.670;13.544;2023-05-20T14:23:34;23.40;39.20
21335;DHT22;69435;52.670;13.544;2023-05-20T14:26:21;23.30;39.30
21335;DHT22;69435;52.670;13.544;2023-05-20T14:29:07;23.10;39.70
21335;DHT22;69435;52.670;13.544;2023-05-20T14:31:53;23.00;40.50
21335;DHT22;69435;52.670;13.544;2023-05-20T14:34:39;22.80;40.80
21335;DHT22;69435;52.670;13.544;2023-05-20T14:37:25;22.70;40.80
21335;DHT22;69435;52.670;13.544;2023-05-20T14:40:12;22.60;41.10
21335;DHT22;69435;52.670;13.544;2023-05-20T14:42:59;22.50;42.30
21335;DHT22;69435;52.670;13.544;2023-05-20T14:45:45;22.40;41.40
21335;DHT22;69435;52.670;13.544;2023-05-20T14:48:31;22.30;41.10
21335;DHT22;69435;52.670;13.544;2023-05-20T14:51:17;22.20;41.10
21335;DHT22;69435;52.670;13.544;2023-05-20T14:54:03;22.10;41.70
21335;DHT22;69435;52.670;13.544;2023-05-20T14:56:50;22.00;42.80
21335;DHT22;69435;52.670;13.544;2023-05-20T14:59:36;21.90;43.00
21335;DHT22;69435;52.670;13.544;2023-05-20T15:02:22;21.90;43.30
21335;DHT22;69435;52.670;13.544;2023-05-20T15:05:08;21.80;43.40
21335;DHT22;69435;52.670;13.544;2023-05-20T15:07:56;21.80;43.20
21335;DHT22;69435;52.670;13.544;2023-05-20T15:10:42;21.80;43.40
21335;DHT22;69435;52.670;13.544;2023-05-20T15:13:28;21.90;43.70
21335;DHT22;69435;52.670;13.544;2023-05-20T15:16:14;21.90;43.10
21335;DHT22;69435;52.670;13.544;2023-05-20T15:19:00;21.80;42.70
21335;DHT22;69435;52.670;13.544;2023-05-20T15:21:50;21.70;44.10
21335;DHT22;69435;52.670;13.544;2023-05-20T15:24:36;21.70;44.00
21335;DHT22;69435;52.670;13.544;2023-05-20T15:27:23;21.60;44.30
21335;DHT22;69435;52.670;13.544;2023-05-20T15:30:10;21.70;44.00
21335;DHT22;69435;52.670;13.544;2023-05-20T15:32:56;21.70;44.20
21335;DHT22;69435;52.670;13.544;2023-05-20T15:35:42;21.70;44.00
21335;DHT22;69435;52.670;13.544;2023-05-20T15:38:30;21.60;44.00
21335;DHT22;69435;52.670;13.544;2023-05-20T15:41:16;21.50;44.40
21335;DHT22;69435;52.670;13.544;2023-05-20T15:44:02;21.50;44.20
21335;DHT22;69435;52.670;13.544;2023-05-20T15:46:53;21.50;44.50
21335;DHT22;69435;52.670;13.544;2023-05-20T15:49:39;21.50;44.50
21335;DHT22;69435;52.670;13.544;2023-05-20T15:52:25;21.40;44.80
21335;DHT22;69435;52.670;13.544;2023-05-20T15:55:11;21.30;45.10
21335;DHT22;69435;52.670;13.544;2023-05-20T15:57:57;21.30;45.10
21335;DHT22;69435;52.670;13.544;2023-05-20T16:00:43;21.30;45.00
21335;DHT22;69435;52.670;13.544;2023-05-20T16:03:29;21.30;45.00
21335;DHT22;69435;52.670;13.544;2023-05-20T16:06:16;21.20;44.80
21335;DHT22;69435;52.670;13.544;2023-05-20T16:09:02;21.30;45.10
21335;DHT22;69435;52.670;13.544;2023-05-20T16:11:48;21.30;45.10
21335;DHT22;69435;52.670;13.544;2023-05-20T16:14:34;21.20;45.10
21335;DHT22;69435;52.670;13.544;2023-05-20T16:17:20;21.30;45.20
21335;DHT22;69435;52.670;13.544;2023-05-20T16:20:07;21.30;45.30
21335;DHT22;69435;52.670;13.544;2023-05-20T16:22:53;21.30;45.20
21335;DHT22;69435;52.670;13.544;2023-05-20T16:25:41;21.30;45.10
21335;DHT22;69435;52.670;13.544;2023-05-20T16:28:27;21.40;45.10
21335;DHT22;69435;52.670;13.544;2023-05-20T16:31:15;21.40;45.20
21335;DHT22;69435;52.670;13.544;2023-05-20T16:34:02;21.40;45.30
21335;DHT22;69435;52.670;13.544;2023-05-20T16:36:48;21.50;45.30
21335;DHT22;69435;52.670;13.544;2023-05-20T16:39:35;21.60;44.90
21335;DHT22;69435;52.670;13.544;2023-05-20T16:42:21;21.60;44.80
21335;DHT22;69435;52.670;13.544;2023-05-20T16:45:08;21.50;44.80
21335;DHT22;69435;52.670;13.544;2023-05-20T16:47:54;21.50;45.40
21335;DHT22;69435;52.670;13.544;2023-05-20T16:50:43;21.50;45.70
21335;DHT22;69435;52.670;13.544;2023-05-20T16:53:29;21.50;45.70
21335;DHT22;69435;52.670;13.544;2023-05-20T16:56:15;21.40;45.60
21335;DHT22;69435;52.670;13.544;2023-05-20T16:59:01;21.40;45.20
21335;DHT22;69435;52.670;13.544;2023-05-20T17:01:47;21.40;45.40
21335;DHT22;69435;52.670;13.544;2023-05-20T17:04:33;21.40;46.10
21335;DHT22;69435;52.670;13.544;2023-05-20T17:07:19;21.30;46.20
21335;DHT22;69435;52.670;13.544;2023-05-20T17:10:07;21.40;46.10
21335;DHT22;69435;52.670;13.544;2023-05-20T17:12:54;21.30;46.30
21335;DHT22;69435;52.670;13.544;2023-05-20T17:15:43;21.30;46.30
21335;DHT22;69435;52.670;13.544;2023-05-20T17:18:32;21.30;46.00
21335;DHT22;69435;52.670;13.544;2023-05-20T17:21:21;21.30;45.90
21335;DHT22;69435;52.670;13.544;2023-05-20T17:24:08;21.30;45.90
21335;DHT22;69435;52.670;13.544;2023-05-20T17:26:54;21.30;46.00